createdAt,value
2018-07-24T00:00:22.616Z,18.47
2018-07-24T00:02:59.275Z,18.42
2018-07-24T00:05:35.124Z,18.43
2018-07-24T00:08:15.896Z,18.40
2018-07-24T00:10:50.506Z,18.40
2018-07-24T00:13:25.285Z,18.33
2018-07-24T00:15:57.968Z,18.38
2018-07-24T00:18:28.908Z,18.32
2018-07-24T00:21:01.503Z,18.24
2018-07-24T00:23:33.575Z,18.23
2018-07-24T00:26:06.132Z,18.20
2018-07-24T00:28:42.955Z,18.19
2018-07-24T00:31:18.263Z,18.16
2018-07-24T00:33:57.481Z,18.12
2018-07-24T00:36:32.760Z,18.05
2018-07-24T00:39:06.545Z,18.02
2018-07-24T00:41:39.428Z,17.99
2018-07-24T00:44:11.084Z,17.96
2018-07-24T00:46:44.788Z,17.94
2018-07-24T00:49:16.097Z,17.94
2018-07-24T00:51:46.990Z,17.94
2018-07-24T00:54:17.782Z,17.93
2018-07-24T00:56:48.412Z,17.90
2018-07-24T00:59:20.065Z,17.80
2018-07-24T01:01:51.424Z,17.79
2018-07-24T01:04:22.701Z,17.79
2018-07-24T01:06:52.372Z,17.75
2018-07-24T01:09:23.916Z,17.76
2018-07-24T01:11:53.740Z,17.84
2018-07-24T01:14:25.645Z,17.75
2018-07-24T01:16:56.116Z,17.71
2018-07-24T01:19:26.324Z,17.73
2018-07-24T01:21:59.835Z,17.73
2018-07-24T01:24:30.652Z,17.71
2018-07-24T01:27:01.864Z,17.69
2018-07-24T01:29:31.213Z,17.69
2018-07-24T01:32:02.824Z,17.65
2018-07-24T01:34:33.461Z,17.61
2018-07-24T01:37:05.106Z,17.57
2018-07-24T01:39:34.208Z,17.53
2018-07-24T01:42:04.990Z,17.54
2018-07-24T01:44:36.496Z,17.50
2018-07-24T01:47:06.536Z,17.46
2018-07-24T01:49:40.038Z,17.40
2018-07-24T01:52:10.284Z,17.43
2018-07-24T01:54:40.691Z,17.40
2018-07-24T01:57:14.994Z,17.42
2018-07-24T01:59:50.484Z,17.42
2018-07-24T02:02:21.612Z,17.44
2018-07-24T02:04:53.487Z,17.40
2018-07-24T02:07:27.043Z,17.34
2018-07-24T02:09:59.868Z,17.25
2018-07-24T02:12:37.389Z,17.27
2018-07-24T02:15:15.900Z,17.27
2018-07-24T02:20:38.221Z,17.27
2018-07-24T02:23:20.157Z,17.26
2018-07-24T02:25:53.035Z,17.21
2018-07-24T02:36:31.453Z,17.14
2018-07-24T02:39:13.509Z,17.12
2018-07-24T02:41:45.770Z,17.08
2018-07-24T02:44:27.107Z,17.07
2018-07-24T02:47:00.820Z,17.01
2018-07-24T02:49:37.675Z,16.96
2018-07-24T02:52:14.753Z,16.96
2018-07-24T02:54:47.474Z,16.90
2018-07-24T02:57:21.260Z,16.84
2018-07-24T02:59:55.517Z,16.77
2018-07-24T03:02:27.033Z,16.76
2018-07-24T03:04:57.526Z,16.77
2018-07-24T03:07:29.360Z,16.76
2018-07-24T03:09:59.089Z,16.77
2018-07-24T03:12:28.217Z,16.73
2018-07-24T03:14:57.429Z,16.73
2018-07-24T03:17:26.799Z,16.73
2018-07-24T03:19:55.920Z,16.64
2018-07-24T03:22:25.103Z,16.60
2018-07-24T03:24:54.303Z,16.59
2018-07-24T03:27:23.657Z,16.62
2018-07-24T03:29:53.507Z,16.61
2018-07-24T03:32:23.248Z,16.60
2018-07-24T03:34:52.384Z,16.56
2018-07-24T03:37:22.058Z,16.60
2018-07-24T03:39:53.197Z,16.62
2018-07-24T03:42:23.012Z,16.65
2018-07-24T03:44:52.695Z,16.63
2018-07-24T03:47:22.724Z,16.61
2018-07-24T03:49:54.681Z,16.58
2018-07-24T03:52:25.162Z,16.53
2018-07-24T03:54:54.641Z,16.51
2018-07-24T03:57:24.684Z,16.48
2018-07-24T03:59:54.854Z,16.51
2018-07-24T04:02:26.839Z,16.52
2018-07-24T04:04:55.948Z,16.52
2018-07-24T04:07:27.894Z,16.53
2018-07-24T04:09:58.538Z,16.60
2018-07-24T04:12:30.276Z,16.60
2018-07-24T04:15:00.278Z,16.61
2018-07-24T04:17:30.349Z,16.64
2018-07-24T04:20:00.152Z,16.63
2018-07-24T04:22:29.776Z,16.69
2018-07-24T04:24:58.752Z,16.68
2018-07-24T04:27:30.125Z,16.67
2018-07-24T04:30:08.601Z,16.69
2018-07-24T04:32:40.544Z,16.71
2018-07-24T04:35:12.499Z,16.78
2018-07-24T04:37:45.660Z,16.74
2018-07-24T04:40:14.667Z,16.89
2018-07-24T04:42:50.276Z,16.98
2018-07-24T04:45:21.932Z,17.06
2018-07-24T04:47:56.340Z,17.06
2018-07-24T04:50:26.693Z,17.15
2018-07-24T04:52:56.857Z,17.26
2018-07-24T04:55:33.130Z,17.23
2018-07-24T04:58:03.906Z,17.35
2018-07-24T05:00:39.500Z,17.49
2018-07-24T05:03:09.920Z,17.52
2018-07-24T05:05:40.412Z,17.63
2018-07-24T05:08:16.370Z,17.78
2018-07-24T05:10:49.630Z,17.95
2018-07-24T05:13:20.308Z,17.99
2018-07-24T05:15:49.890Z,18.08
2018-07-24T05:18:20.806Z,18.18
2018-07-24T05:20:53.512Z,18.32
2018-07-24T05:23:26.657Z,18.42
2018-07-24T05:26:02.354Z,18.55
2018-07-24T05:28:37.752Z,18.77
2018-07-24T05:31:08.301Z,18.93
2018-07-24T05:33:39.252Z,19.07
2018-07-24T05:36:11.429Z,19.23
2018-07-24T05:38:42.524Z,19.32
2018-07-24T05:41:12.772Z,19.46
2018-07-24T05:43:43.264Z,19.53
2018-07-24T05:46:17.724Z,19.59
2018-07-24T05:48:51.278Z,19.67
2018-07-24T05:51:22.676Z,19.74
2018-07-24T05:53:53.809Z,19.96
2018-07-24T05:56:30.187Z,20.17
2018-07-24T05:59:00.394Z,20.33
2018-07-24T06:01:31.592Z,20.47
2018-07-24T06:04:02.605Z,20.57
2018-07-24T06:06:35.232Z,20.75
2018-07-24T06:09:09.932Z,20.83
2018-07-24T06:11:42.161Z,20.97
2018-07-24T06:14:12.633Z,21.18
2018-07-24T06:16:44.363Z,21.33
2018-07-24T06:19:15.408Z,21.32
2018-07-24T06:21:49.666Z,21.54
2018-07-24T06:24:27.514Z,21.66
2018-07-24T06:28:34.760Z,21.73
2018-07-24T06:31:05.045Z,22.14
2018-07-24T06:33:37.096Z,22.35
2018-07-24T06:36:08.367Z,22.29
2018-07-24T06:38:39.353Z,22.52
2018-07-24T06:41:11.671Z,22.72
2018-07-24T06:43:43.500Z,22.91
2018-07-24T06:46:23.684Z,23.09
2018-07-24T06:48:55.803Z,23.36
2018-07-24T06:51:28.481Z,23.68
2018-07-24T06:54:04.285Z,24.16
2018-07-24T06:56:35.831Z,24.72
2018-07-24T06:59:09.977Z,24.95
2018-07-24T07:01:39.411Z,25.01
2018-07-24T07:04:12.035Z,24.97
2018-07-24T07:06:42.888Z,25.14
2018-07-24T07:09:13.949Z,25.26
2018-07-24T07:11:44.144Z,25.28
2018-07-24T07:14:13.745Z,25.29
2018-07-24T07:16:42.952Z,25.29
2018-07-24T07:19:13.175Z,25.73
2018-07-24T07:21:43.161Z,26.09
2018-07-24T07:24:12.619Z,26.59
2018-07-24T07:26:42.240Z,27.05
2018-07-24T07:29:12.119Z,27.56
2018-07-24T07:31:42.200Z,28.43
2018-07-24T07:34:13.888Z,28.29
2018-07-24T07:36:50.126Z,29.28
2018-07-24T07:45:03.293Z,35.22
2018-07-24T07:47:35.158Z,36.10
2018-07-24T07:50:07.357Z,37.21
2018-07-24T07:52:37.157Z,36.08
2018-07-24T07:55:08.244Z,37.48
2018-07-24T07:57:39.819Z,38.43
2018-07-24T08:00:16.516Z,39.06
2018-07-24T08:02:51.947Z,38.77
2018-07-24T08:05:28.820Z,40.34
2018-07-24T08:08:02.520Z,40.33
2018-07-24T08:10:37.554Z,35.05
2018-07-24T08:13:08.631Z,35.73
2018-07-24T08:15:40.260Z,37.39
2018-07-24T08:18:11.048Z,36.67
2018-07-24T08:20:45.928Z,35.35
2018-07-24T08:23:16.245Z,37.54
2018-07-24T08:25:46.089Z,35.21
2018-07-24T08:28:17.393Z,35.82
2018-07-24T08:30:48.456Z,37.10
2018-07-24T08:33:21.646Z,34.75
2018-07-24T08:35:53.136Z,33.01
2018-07-24T08:38:23.704Z,34.81
2018-07-24T08:40:54.866Z,38.31
2018-07-24T08:43:25.002Z,40.53
2018-07-24T08:45:57.989Z,36.77
2018-07-24T08:48:33.257Z,38.21
2018-07-24T08:51:06.215Z,38.60
2018-07-24T08:53:41.569Z,34.96
2018-07-24T08:56:10.544Z,36.14
2018-07-24T08:58:42.781Z,37.62
2018-07-24T09:01:12.872Z,36.88
2018-07-24T09:03:43.592Z,34.92
2018-07-24T09:06:13.986Z,35.02
2018-07-24T09:08:45.234Z,38.57
2018-07-24T09:11:15.432Z,38.23
2018-07-24T09:13:45.733Z,38.07
2018-07-24T09:16:19.593Z,37.30
2018-07-24T09:18:49.968Z,35.66
2018-07-24T09:21:21.065Z,35.55
2018-07-24T09:23:56.235Z,36.55
2018-07-24T09:26:27.997Z,34.62
2018-07-24T09:29:00.118Z,33.87
2018-07-24T09:31:30.400Z,35.81
2018-07-24T09:34:06.812Z,35.95
2018-07-24T09:36:39.355Z,34.95
2018-07-24T09:39:10.541Z,36.15
2018-07-24T09:41:41.060Z,36.88
2018-07-24T09:44:11.638Z,35.36
2018-07-24T09:46:44.642Z,35.37
2018-07-24T09:49:14.800Z,36.95
2018-07-24T09:51:47.287Z,39.36
2018-07-24T09:54:17.804Z,38.92
2018-07-24T09:56:48.295Z,39.47
2018-07-24T09:59:19.396Z,35.94
2018-07-24T10:01:54.015Z,34.49
2018-07-24T10:04:26.480Z,34.36
2018-07-24T10:06:57.422Z,35.27
2018-07-24T10:09:30.917Z,33.83
2018-07-24T10:12:02.268Z,33.59
2018-07-24T10:14:37.840Z,33.65
2018-07-24T10:17:10.041Z,35.84
2018-07-24T10:19:45.717Z,37.37
2018-07-24T10:22:18.270Z,39.43
2018-07-24T10:24:47.845Z,37.50
2018-07-24T10:27:20.497Z,36.80
2018-07-24T10:29:50.356Z,35.85
2018-07-24T10:32:20.766Z,35.41
2018-07-24T10:34:50.321Z,35.08
2018-07-24T10:37:21.350Z,36.16
2018-07-24T10:39:52.139Z,36.02
2018-07-24T10:42:21.701Z,35.63
2018-07-24T10:44:53.891Z,36.27
2018-07-24T10:47:25.471Z,33.73
2018-07-24T10:49:58.165Z,34.89
2018-07-24T10:52:30.197Z,34.55
2018-07-24T10:55:01.252Z,34.79
2018-07-24T10:57:36.545Z,35.41
2018-07-24T11:00:09.065Z,36.14
2018-07-24T11:02:39.579Z,38.23
2018-07-24T11:05:10.175Z,38.40
2018-07-24T11:07:39.685Z,38.49
2018-07-24T11:10:10.480Z,37.72
2018-07-24T11:12:44.376Z,35.19
2018-07-24T11:15:28.643Z,34.88
2018-07-24T11:18:01.693Z,33.62
2018-07-24T11:20:40.266Z,34.97
2018-07-24T11:23:18.875Z,34.93
2018-07-24T11:26:04.140Z,34.73
2018-07-24T11:28:56.233Z,35.65
2018-07-24T11:31:34.225Z,36.02
2018-07-24T11:34:22.004Z,37.38
2018-07-24T11:37:00.244Z,36.73
2018-07-24T11:39:35.193Z,38.03
2018-07-24T11:42:08.144Z,39.15
2018-07-24T11:44:56.519Z,40.05
2018-07-24T11:47:32.419Z,39.09
2018-07-24T11:50:07.065Z,39.70
2018-07-24T11:52:38.048Z,40.30
2018-07-24T11:55:13.894Z,38.79
2018-07-24T11:57:46.533Z,39.28
2018-07-24T12:13:20.729Z,39.52
2018-07-24T12:15:50.216Z,38.15
2018-07-24T12:18:22.433Z,37.65
2018-07-24T12:20:51.764Z,36.55
2018-07-24T12:23:20.924Z,38.48
2018-07-24T12:25:50.420Z,39.71
2018-07-24T12:28:20.669Z,38.52
2018-07-24T12:30:52.543Z,38.18
2018-07-24T12:33:21.700Z,36.60
2018-07-24T12:35:51.267Z,35.89
2018-07-24T12:38:23.565Z,35.80
2018-07-24T12:40:52.822Z,36.27
2018-07-24T12:43:22.674Z,38.15
2018-07-24T12:45:52.316Z,37.09
2018-07-24T12:48:21.438Z,36.58
2018-07-24T12:50:50.679Z,35.74
2018-07-24T12:53:19.879Z,35.50
2018-07-24T12:55:49.239Z,36.02
2018-07-24T12:58:19.101Z,37.25
2018-07-24T13:00:49.528Z,37.55
2018-07-24T13:03:19.096Z,36.24
2018-07-24T13:05:48.080Z,35.94
2018-07-24T13:08:17.916Z,37.00
2018-07-24T13:10:49.680Z,36.83
2018-07-24T13:13:23.145Z,36.06
2018-07-24T13:15:54.141Z,36.91
2018-07-24T13:18:25.479Z,35.76
2018-07-24T13:20:56.930Z,35.35
2018-07-24T13:23:31.869Z,35.39
2018-07-24T13:26:02.969Z,35.90
2018-07-24T13:28:33.248Z,36.91
2018-07-24T13:31:03.456Z,36.16
2018-07-24T13:33:34.864Z,35.79
2018-07-24T13:36:04.102Z,35.64
2018-07-24T13:38:39.747Z,34.91
2018-07-24T13:41:09.871Z,35.56
2018-07-24T13:43:41.353Z,37.33
2018-07-24T13:46:11.577Z,38.67
2018-07-24T13:48:44.153Z,37.94
2018-07-24T13:51:15.430Z,36.92
2018-07-24T13:53:49.925Z,35.96
2018-07-24T13:56:22.626Z,37.11
2018-07-24T13:58:56.872Z,37.94
2018-07-24T14:01:28.208Z,37.07
2018-07-24T14:04:02.675Z,37.97
2018-07-24T14:06:36.276Z,37.96
2018-07-24T14:09:13.736Z,37.43
2018-07-24T14:11:45.923Z,36.93
2018-07-24T14:14:17.541Z,35.94
2018-07-24T14:16:49.995Z,34.89
2018-07-24T14:19:20.807Z,35.42
2018-07-24T14:21:51.740Z,35.85
2018-07-24T14:24:22.285Z,36.48
2018-07-24T14:26:57.749Z,36.38
2018-07-24T14:29:28.072Z,36.56
2018-07-24T14:31:59.773Z,36.63
2018-07-24T14:34:30.380Z,36.30
2018-07-24T14:37:02.821Z,35.25
2018-07-24T14:39:32.868Z,35.08
2018-07-24T14:42:03.732Z,35.32
2018-07-24T14:44:33.901Z,35.97
2018-07-24T14:47:07.063Z,36.94
2018-07-24T14:49:39.973Z,36.41
2018-07-24T14:52:11.853Z,37.19
2018-07-24T14:54:44.296Z,37.10
2018-07-24T14:57:15.378Z,34.13
2018-07-24T14:59:50.081Z,33.62
2018-07-24T15:02:21.985Z,34.96
2018-07-24T15:04:56.181Z,36.20
2018-07-24T15:07:27.087Z,37.37
2018-07-24T15:09:56.826Z,37.83
2018-07-24T15:12:27.846Z,37.02
2018-07-24T15:14:58.754Z,36.08
2018-07-24T15:17:33.829Z,35.87
2018-07-24T15:20:05.135Z,35.81
2018-07-24T15:22:35.585Z,35.10
2018-07-24T15:25:08.277Z,35.67
2018-07-24T15:27:40.461Z,35.17
2018-07-24T15:30:10.454Z,34.88
2018-07-24T15:32:40.600Z,33.68
2018-07-24T15:35:13.539Z,33.68
2018-07-24T15:37:46.047Z,33.17
2018-07-24T15:40:16.952Z,33.04
2018-07-24T15:42:49.688Z,33.26
2018-07-24T15:45:20.832Z,33.33
2018-07-24T15:47:51.923Z,33.14
2018-07-24T15:50:21.945Z,33.06
2018-07-24T15:52:54.378Z,33.17
2018-07-24T15:55:26.524Z,33.12
2018-07-24T15:57:58.679Z,33.00
2018-07-24T16:00:34.042Z,33.28
2018-07-24T16:03:07.933Z,33.50
2018-07-24T16:05:41.912Z,33.63
2018-07-24T16:08:13.188Z,33.26
2018-07-24T16:10:49.367Z,33.32
2018-07-24T16:13:23.021Z,32.49
2018-07-24T16:15:54.304Z,32.70
2018-07-24T16:18:25.929Z,32.79
2018-07-24T16:21:01.497Z,32.96
2018-07-24T16:23:32.022Z,32.80
2018-07-24T16:26:04.592Z,32.62
2018-07-24T16:28:34.902Z,32.49
2018-07-24T16:31:04.133Z,32.69
2018-07-24T16:33:38.657Z,32.74
2018-07-24T16:36:08.640Z,32.76
2018-07-24T16:38:40.710Z,32.79
2018-07-24T16:41:11.972Z,32.83
2018-07-24T16:43:44.121Z,32.34
2018-07-24T16:46:14.349Z,32.30
2018-07-24T16:48:44.689Z,32.51
2018-07-24T16:51:17.641Z,32.55
2018-07-24T16:53:50.653Z,32.54
2018-07-24T16:56:22.915Z,32.56
2018-07-24T16:58:55.249Z,32.48
2018-07-24T17:01:24.960Z,32.37
2018-07-24T17:03:54.192Z,32.20
2018-07-24T17:06:25.240Z,32.23
2018-07-24T17:08:59.157Z,32.10
2018-07-24T17:11:36.227Z,31.98
2018-07-24T17:14:05.700Z,32.25
2018-07-24T17:16:36.835Z,32.06
2018-07-24T17:19:07.517Z,31.85
2018-07-24T17:21:39.706Z,31.84
2018-07-24T17:24:10.001Z,32.11
2018-07-24T17:26:46.828Z,32.09
2018-07-24T17:29:18.848Z,31.92
2018-07-24T17:31:51.183Z,31.56
2018-07-24T17:34:20.318Z,31.44
2018-07-24T17:36:50.856Z,31.32
2018-07-24T17:39:27.120Z,31.24
2018-07-24T17:41:58.076Z,31.14
2018-07-24T17:44:30.937Z,31.04
2018-07-24T17:47:02.072Z,30.87
2018-07-24T17:49:34.606Z,30.78
2018-07-24T17:52:06.108Z,30.63
2018-07-24T17:54:36.284Z,30.39
2018-07-24T17:57:07.529Z,30.24
2018-07-24T17:59:52.476Z,30.09
2018-07-24T18:02:24.412Z,29.92
2018-07-24T18:04:55.479Z,29.78
2018-07-24T18:07:28.136Z,29.57
2018-07-24T18:09:59.702Z,29.41
2018-07-24T18:12:31.337Z,29.25
2018-07-24T18:15:05.909Z,28.97
2018-07-24T18:17:36.329Z,28.79
2018-07-24T18:20:07.982Z,28.63
2018-07-24T18:22:43.753Z,28.49
2018-07-24T18:25:18.908Z,28.36
2018-07-24T18:27:50.792Z,28.28
2018-07-24T18:30:20.965Z,28.22
2018-07-24T18:32:52.051Z,28.11
2018-07-24T18:35:25.600Z,27.94
2018-07-24T18:37:55.574Z,27.80
2018-07-24T18:40:27.337Z,27.65
2018-07-24T18:42:58.233Z,27.60
2018-07-24T18:45:31.132Z,27.49
2018-07-24T18:48:03.939Z,27.39
2018-07-24T18:50:38.486Z,27.27
2018-07-24T18:53:07.816Z,27.20
2018-07-24T18:55:38.130Z,27.07
2018-07-24T18:58:13.546Z,26.97
2018-07-24T19:00:44.381Z,26.82
2018-07-24T19:03:15.758Z,26.64
2018-07-24T19:05:45.844Z,26.51
2018-07-24T19:08:17.283Z,26.44
2018-07-24T19:10:47.308Z,26.25
2018-07-24T19:13:19.964Z,26.03
2018-07-24T19:18:24.020Z,25.86
2018-07-24T19:27:43.637Z,25.39
2018-07-24T19:30:15.389Z,25.17
2018-07-24T19:32:45.516Z,25.08
2018-07-24T19:35:15.633Z,25.04
2018-07-24T19:37:45.679Z,24.97
2018-07-24T19:40:14.976Z,24.88
2018-07-24T19:42:44.699Z,24.87
2018-07-24T19:45:15.150Z,24.88
2018-07-24T19:47:45.824Z,24.71
2018-07-24T19:50:16.255Z,24.55
2018-07-24T19:52:46.425Z,24.36
2018-07-24T19:55:19.582Z,24.20
2018-07-24T19:57:49.353Z,24.09
2018-07-24T20:00:20.300Z,23.90
2018-07-24T20:02:51.972Z,23.86
2018-07-24T20:05:23.537Z,23.84
2018-07-24T20:07:57.166Z,23.78
2018-07-24T20:10:29.764Z,23.68
2018-07-24T20:12:58.876Z,23.62
2018-07-24T20:15:29.637Z,23.41
2018-07-24T20:18:00.058Z,23.25
2018-07-24T20:20:31.444Z,23.35
2018-07-24T20:23:07.184Z,23.35
2018-07-24T20:25:41.635Z,23.30
2018-07-24T20:28:26.293Z,23.17
2018-07-24T20:31:12.902Z,22.98
2018-07-24T20:33:56.573Z,22.78
2018-07-24T20:36:32.350Z,22.77
2018-07-24T20:39:11.828Z,22.72
2018-07-24T20:41:55.369Z,22.70
2018-07-24T20:44:32.256Z,22.77
2018-07-24T20:47:19.270Z,22.74
2018-07-24T20:50:02.899Z,22.63
2018-07-24T20:52:34.440Z,22.58
2018-07-24T20:57:42.285Z,22.54
2018-07-24T21:00:15.873Z,22.49
2018-07-24T21:02:52.438Z,22.45
2018-07-24T21:05:22.525Z,22.42
2018-07-24T21:07:54.954Z,22.35
2018-07-24T21:10:25.889Z,22.31
2018-07-24T21:12:55.111Z,22.28
2018-07-24T21:15:29.134Z,22.28
2018-07-24T21:18:01.818Z,22.21
2018-07-24T21:20:34.920Z,22.13
2018-07-24T21:23:05.749Z,22.01
2018-07-24T21:25:35.905Z,22.01
2018-07-24T21:28:04.817Z,21.91
2018-07-24T21:30:37.600Z,21.84
2018-07-24T21:33:06.588Z,21.83
2018-07-24T21:35:36.350Z,21.76
2018-07-24T21:38:06.557Z,21.67
2018-07-24T21:40:35.922Z,21.62
2018-07-24T21:43:05.024Z,21.57
2018-07-24T21:45:35.434Z,21.53
2018-07-24T21:48:04.541Z,21.46
2018-07-24T21:50:34.313Z,21.35
2018-07-24T21:53:03.489Z,21.43
2018-07-24T21:55:34.701Z,21.34
2018-07-24T21:58:04.300Z,21.33
2018-07-24T22:00:36.280Z,21.31
2018-07-24T22:03:08.691Z,21.32
2018-07-24T22:05:40.164Z,21.34
2018-07-24T22:08:10.181Z,21.34
2018-07-24T22:10:41.101Z,21.32
2018-07-24T22:13:11.561Z,21.32
2018-07-24T22:15:42.908Z,21.26
2018-07-24T22:18:13.258Z,21.21
2018-07-24T22:20:43.317Z,21.12
2018-07-24T22:23:17.988Z,21.02
2018-07-24T22:25:48.100Z,20.95
2018-07-24T22:28:17.620Z,20.91
2018-07-24T22:30:46.966Z,20.83
2018-07-24T22:33:21.179Z,20.82
2018-07-24T22:35:52.278Z,20.69
2018-07-24T22:38:22.257Z,20.66
2018-07-24T22:40:54.768Z,20.61
2018-07-24T22:43:25.192Z,20.59
2018-07-24T22:45:55.129Z,20.60
2018-07-24T22:48:25.200Z,20.49
2018-07-24T22:50:57.409Z,20.36
2018-07-24T22:53:27.930Z,20.34
2018-07-24T22:56:00.700Z,20.36
2018-07-24T22:58:33.031Z,20.37
2018-07-24T23:01:03.604Z,20.36
2018-07-24T23:03:34.456Z,20.32
2018-07-24T23:06:10.821Z,20.25
2018-07-24T23:08:41.115Z,20.27
2018-07-24T23:11:11.518Z,20.24
2018-07-24T23:13:41.593Z,20.23
2018-07-24T23:16:13.623Z,20.20
2018-07-24T23:18:43.873Z,20.07
2018-07-24T23:21:18.649Z,20.10
2018-07-24T23:23:49.855Z,20.06
2018-07-24T23:26:20.352Z,20.06
2018-07-24T23:28:51.521Z,19.97
2018-07-24T23:31:23.786Z,19.96
2018-07-24T23:33:54.112Z,19.93
2018-07-24T23:36:25.157Z,19.94
2018-07-24T23:38:55.001Z,19.92
2018-07-24T23:41:26.453Z,19.88
2018-07-24T23:44:00.641Z,19.89
2018-07-24T23:46:34.741Z,19.81
2018-07-24T23:49:06.204Z,19.74
2018-07-24T23:51:40.341Z,19.65
2018-07-24T23:54:12.170Z,19.61
2018-07-24T23:56:42.860Z,19.60
2018-07-24T23:59:13.949Z,19.59
